Time;durP1;ratioP1;P1;durP2;ratioP2;P2;SDS_P1;SDS_P2;PMS_P1;PMS_P2;Temp;Humidity;BMP_temperature;BMP_pressure;BME280_temperature;BME280_humidity;BME280_pressure;Samples;Min_cycle;Max_cycle;Signal;HPM_P1;HPM_P2
2023/10/13 00:01:11;;;;;;;24.10;9.43;;;;;;;11.40;60.56;101016.13;4920053;28;20103;-74
2023/10/13 00:03:37;;;;;;;30.40;11.32;;;;;;;11.35;60.27;101017.22;4901606;28;20031;-75
2023/10/13 00:06:03;;;;;;;29.27;11.30;;;;;;;11.31;60.66;101008.66;4922731;28;20446;-76
2023/10/13 00:08:29;;;;;;;22.58;10.45;;;;;;;11.30;60.89;101008.72;4924470;28;20036;-75
2023/10/13 00:11:02;;;;;;;26.30;12.02;;;;;;;11.39;60.71;101013.56;4926239;28;20071;-74
2023/10/13 00:13:30;;;;;;;23.33;11.77;;;;;;;11.16;61.32;101001.44;4909692;28;20421;-73
2023/10/13 00:15:59;;;;;;;29.88;12.13;;;;;;;11.32;61.06;101002.50;4919360;28;20055;-73
2023/10/13 00:18:41;;;;;;;31.00;13.43;;;;;;;11.37;61.11;100999.69;4918850;28;20059;-76
2023/10/13 00:21:19;;;;;;;26.73;12.23;;;;;;;11.32;61.01;100994.66;4910083;28;20051;-72
2023/10/13 00:23:54;;;;;;;33.60;13.27;;;;;;;11.35;60.76;100988.44;4913369;28;20057;-72
2023/10/13 00:26:28;;;;;;;35.53;12.43;;;;;;;11.31;61.44;100979.88;4924393;28;20072;-72
2023/10/13 00:31:36;;;;;;;27.50;12.23;;;;;;;11.45;61.11;100971.44;4917184;28;20063;-71
2023/10/13 00:34:10;;;;;;;25.88;12.85;;;;;;;11.38;61.08;100960.38;4933055;28;20483;-71
2023/10/13 00:36:36;;;;;;;34.45;13.20;;;;;;;11.41;61.34;100955.00;4903189;28;20055;-70
2023/10/13 00:39:06;;;;;;;30.05;13.57;;;;;;;11.40;61.41;100953.31;4917558;28;20063;-70
2023/10/13 00:41:52;;;;;;;32.33;13.25;;;;;;;11.46;61.58;100958.31;4931453;28;20471;-75
2023/10/13 00:44:28;;;;;;;24.55;13.23;;;;;;;11.58;61.33;100961.31;4919048;28;20154;-72
2023/10/13 00:46:56;;;;;;;25.33;12.20;;;;;;;11.56;61.30;100956.13;4918641;28;20047;-72
2023/10/13 00:49:23;;;;;;;28.73;12.60;;;;;;;11.55;61.30;100953.56;4933091;28;20035;-71
2023/10/13 00:51:50;;;;;;;24.17;12.10;;;;;;;11.50;61.55;100958.16;4914428;28;20066;-72
2023/10/13 00:54:18;;;;;;;25.70;13.55;;;;;;;11.54;61.19;100954.50;4914815;28;20050;-71
2023/10/13 00:56:48;;;;;;;25.55;12.93;;;;;;;11.54;61.53;100957.13;4916342;28;20546;-73
2023/10/13 00:59:17;;;;;;;26.33;12.93;;;;;;;11.54;61.60;100944.03;4915056;28;20072;-70
2023/10/13 01:01:43;;;;;;;25.55;13.90;;;;;;;11.57;61.79;100939.50;4904007;28;20027;-70
2023/10/13 01:04:12;;;;;;;24.13;12.18;;;;;;;11.57;61.70;100936.88;4917638;28;20572;-70
2023/10/13 01:06:39;;;;;;;26.92;11.43;;;;;;;11.66;61.92;100928.66;4920532;28;20102;-70
2023/10/13 01:09:13;;;;;;;24.38;12.90;;;;;;;11.71;61.88;100928.44;4917508;28;20039;-70
2023/10/13 01:11:42;;;;;;;21.90;11.38;;;;;;;11.81;61.86;100916.66;4915775;28;20074;-71
2023/10/13 01:14:11;;;;;;;24.55;12.23;;;;;;;11.84;62.10;100921.78;4902180;28;20046;-70
2023/10/13 01:16:45;;;;;;;27.85;12.77;;;;;;;11.88;61.75;100918.09;4918376;28;20062;-70
2023/10/13 01:19:19;;;;;;;28.58;12.27;;;;;;;11.87;61.58;100903.31;4918661;28;20046;-70
2023/10/13 01:21:47;;;;;;;27.52;12.77;;;;;;;11.83;61.81;100899.13;4918775;28;20043;-70
2023/10/13 01:24:15;;;;;;;28.30;14.35;;;;;;;11.85;61.81;100907.75;4934102;28;20142;-70
2023/10/13 01:26:42;;;;;;;27.08;13.88;;;;;;;11.91;61.96;100897.91;4933974;28;20193;-70
2023/10/13 01:29:12;;;;;;;32.60;14.45;;;;;;;11.82;62.22;100904.41;4909229;28;20047;-70
2023/10/13 01:31:48;;;;;;;32.30;14.63;;;;;;;11.88;62.02;100902.38;4920921;28;20035;-70
2023/10/13 01:34:21;;;;;;;27.00;12.93;;;;;;;11.91;62.20;100897.91;4909723;28;20115;-71
2023/10/13 01:36:53;;;;;;;39.25;16.20;;;;;;;11.92;62.27;100891.78;4917026;28;20508;-70
2023/10/13 01:39:20;;;;;;;33.45;14.48;;;;;;;11.96;62.36;100898.59;4918910;28;20122;-70
2023/10/13 01:41:53;;;;;;;33.70;15.57;;;;;;;12.01;62.36;100891.34;4934358;28;20032;-71
2023/10/13 01:44:19;;;;;;;34.08;15.20;;;;;;;12.00;62.27;100887.03;4918592;28;20091;-71
2023/10/13 01:46:45;;;;;;;34.83;14.98;;;;;;;12.02;62.40;100883.44;4920816;28;20379;-71
2023/10/13 01:49:11;;;;;;;34.63;13.65;;;;;;;12.07;62.41;100876.22;4926975;28;20395;-71
2023/10/13 01:51:39;;;;;;;37.83;16.92;;;;;;;11.98;62.50;100871.41;4917237;28;20066;-72
2023/10/13 01:54:11;;;;;;;33.30;15.55;;;;;;;12.20;62.17;100866.00;4936639;28;20043;-71
2023/10/13 01:56:42;;;;;;;40.72;16.92;;;;;;;12.27;62.30;100867.41;4901971;28;20188;-71
2023/10/13 01:59:11;;;;;;;41.22;16.80;;;;;;;12.27;62.49;100862.19;4926662;28;20098;-71
2023/10/13 02:01:37;;;;;;;40.20;17.75;;;;;;;12.34;62.46;100859.28;4903319;28;20047;-71
2023/10/13 02:04:03;;;;;;;40.38;17.58;;;;;;;12.40;62.56;100854.59;4936928;28;20047;-71
2023/10/13 02:06:32;;;;;;;38.70;17.92;;;;;;;12.44;62.43;100844.78;4936758;28;20110;-71
2023/10/13 02:09:25;;;;;;;40.58;17.00;;;;;;;12.43;62.40;100848.34;4917278;28;20059;-71
2023/10/13 02:11:56;;;;;;;37.40;16.85;;;;;;;12.49;62.48;100840.16;4919691;28;20259;-71
2023/10/13 02:14:22;;;;;;;46.33;18.60;;;;;;;12.55;62.52;100837.25;4922962;28;20426;-71
2023/10/13 02:16:50;;;;;;;40.15;17.50;;;;;;;12.62;62.56;100835.16;4922574;28;20027;-71
2023/10/13 02:19:19;;;;;;;38.40;17.42;;;;;;;12.63;62.41;100831.63;4932390;28;20501;-71
2023/10/13 02:21:45;;;;;;;35.38;15.93;;;;;;;12.69;62.38;100832.22;4924123;28;20042;-71
2023/10/13 02:24:17;;;;;;;38.22;17.88;;;;;;;12.68;62.81;100830.47;4920445;28;20582;-71
2023/10/13 02:26:44;;;;;;;46.03;18.15;;;;;;;12.81;62.67;100822.03;4933041;28;20031;-72
2023/10/13 02:29:13;;;;;;;36.00;17.30;;;;;;;12.87;62.37;100814.72;4919650;28;20118;-71
2023/10/13 02:31:43;;;;;;;34.33;16.55;;;;;;;12.81;63.02;100808.94;4917416;28;20447;-71
2023/10/13 02:34:09;;;;;;;39.30;17.13;;;;;;;12.80;63.23;100804.59;4919005;28;20127;-71
2023/10/13 02:36:49;;;;;;;35.15;17.30;;;;;;;12.92;62.78;100795.28;4935832;28;20130;-71
2023/10/13 02:39:25;;;;;;;40.58;17.27;;;;;;;12.87;63.33;100791.09;4931871;28;20043;-71
2023/10/13 02:41:55;;;;;;;30.35;15.57;;;;;;;12.96;63.07;100792.41;4921069;28;20074;-70
2023/10/13 02:44:27;;;;;;;29.08;16.10;;;;;;;12.98;62.84;100790.56;4917878;28;20039;-71
2023/10/13 02:46:55;;;;;;;28.92;15.98;;;;;;;13.01;63.35;100785.13;4915325;28;20495;-70
2023/10/13 02:49:31;;;;;;;31.23;15.25;;;;;;;13.11;63.04;100782.88;4919196;28;20050;-71
2023/10/13 02:51:59;;;;;;;37.40;16.40;;;;;;;13.04;63.07;100789.38;4923833;28;21539;-71
2023/10/13 02:54:30;;;;;;;25.90;14.77;;;;;;;13.15;62.82;100786.19;4934727;28;20066;-71
2023/10/13 02:57:03;;;;;;;28.83;14.38;;;;;;;13.10;63.48;100776.78;4932976;28;20062;-75
2023/10/13 02:59:46;;;;;;;32.42;16.27;;;;;;;13.21;63.10;100770.97;4925901;28;20054;-74
2023/10/13 03:02:25;;;;;;;30.23;15.23;;;;;;;13.22;62.98;100763.94;4920770;28;20031;-75
2023/10/13 03:04:59;;;;;;;35.85;15.98;;;;;;;13.30;62.83;100765.25;4905095;28;20532;-75
2023/10/13 03:07:28;;;;;;;36.03;15.90;;;;;;;13.19;63.26;100758.88;4931796;28;20035;-76
2023/10/13 03:10:00;;;;;;;36.10;15.95;;;;;;;13.18;63.21;100762.41;4917356;28;20055;-75
2023/10/13 03:12:32;;;;;;;31.58;15.88;;;;;;;13.23;63.40;100763.88;4919749;28;20479;-76
2023/10/13 03:15:12;;;;;;;30.88;16.35;;;;;;;13.34;63.01;100750.19;4914184;28;20046;-72
2023/10/13 03:17:43;;;;;;;38.03;17.25;;;;;;;13.36;63.04;100750.97;4918448;28;20395;-72
2023/10/13 03:20:15;;;;;;;33.10;15.15;;;;;;;13.44;62.78;100740.88;4920465;28;20438;-72
2023/10/13 03:22:44;;;;;;;25.73;15.82;;;;;;;13.20;64.23;100748.28;4930533;28;20027;-74
2023/10/13 03:25:23;;;;;;;34.35;17.02;;;;;;;13.04;64.44;100745.63;4927477;28;20485;-73
2023/10/13 03:30:17;;;;;;;34.63;17.73;;;;;;;13.17;64.14;100755.47;4934622;28;20043;-73
2023/10/13 03:32:54;;;;;;;33.97;18.05;;;;;;;12.96;65.24;100746.94;4932451;28;20035;-73
2023/10/13 03:35:24;;;;;;;30.50;16.48;;;;;;;13.28;64.22;100740.00;4922489;28;20074;-70
2023/10/13 03:37:57;;;;;;;33.55;17.00;;;;;;;13.43;63.70;100744.44;4917134;28;20038;-73
2023/10/13 03:45:42;;;;;;;29.50;16.15;;;;;;;13.18;64.58;100725.66;4916506;28;20130;-72
2023/10/13 03:51:10;;;;;;;26.10;14.40;;;;;;;13.62;63.46;100707.53;4914886;28;20046;-71
2023/10/13 03:53:59;;;;;;;27.58;15.40;;;;;;;13.61;63.32;100710.28;4916005;28;20131;-71
2023/10/13 03:56:29;;;;;;;26.52;13.95;;;;;;;13.42;64.45;100695.47;4919743;28;20055;-72
2023/10/13 03:59:06;;;;;;;25.58;14.40;;;;;;;13.43;64.15;100685.81;4911310;28;20409;-72
2023/10/13 04:04:29;;;;;;;23.95;14.20;;;;;;;13.61;63.75;100682.22;4918290;28;20040;-71
2023/10/13 04:17:22;;;;;;;22.42;12.98;;;;;;;13.65;63.85;100664.50;4917205;28;20039;-72
2023/10/13 04:24:08;;;;;;;21.33;10.85;;;;;;;13.62;64.01;100648.91;4915516;28;20693;-70
2023/10/13 04:28:15;;;;;;;16.42;9.45;;;;;;;13.68;63.70;100627.56;4932952;28;20032;-71
2023/10/13 04:30:59;;;;;;;23.52;10.77;;;;;;;13.59;63.96;100623.69;4916362;28;20071;-69
2023/10/13 04:36:21;;;;;;;17.83;7.97;;;;;;;13.55;64.17;100610.78;4915955;28;20230;-74
2023/10/13 04:41:43;;;;;;;15.70;8.70;;;;;;;13.49;64.55;100597.06;4918790;28;20028;-74
2023/10/13 04:50:01;;;;;;;18.98;8.35;;;;;;;13.77;63.45;100579.75;4915925;28;20130;-70
2023/10/13 04:57:46;;;;;;;17.85;10.52;;;;;;;13.56;64.70;100562.56;4920438;28;20744;-72
2023/10/13 05:44:32;;;;;;;21.35;12.98;;;;;;;13.69;64.17;100539.97;4920613;28;20086;-74
2023/10/13 05:49:52;;;;;;;21.55;11.25;;;;;;;13.51;65.67;100463.91;4934612;28;20046;-69
2023/10/13 05:52:19;;;;;;;22.95;11.98;;;;;;;13.07;67.47;100454.25;4921336;28;20042;-69
2023/10/13 06:30:38;;;;;;;15.05;9.20;;;;;;;13.51;65.46;100385.16;4918075;28;20122;-71
2023/10/13 06:33:05;;;;;;;17.48;9.30;;;;;;;13.45;65.87;100385.53;4928408;28;21540;-70
2023/10/13 06:35:31;;;;;;;13.40;7.80;;;;;;;13.43;65.76;100361.16;4933549;28;20043;-70
2023/10/13 06:38:00;;;;;;;9.40;6.72;;;;;;;13.27;66.01;100360.38;4913545;28;20046;-70
2023/10/13 06:40:26;;;;;;;8.73;5.82;;;;;;;13.22;66.00;100372.94;4918496;28;20067;-70
2023/10/13 06:43:16;;;;;;;11.23;5.93;;;;;;;13.32;65.92;100376.72;4930992;28;20044;-71
2023/10/13 06:45:50;;;;;;;8.85;4.72;;;;;;;13.20;66.15;100374.78;4917783;28;20051;-71
2023/10/13 06:48:18;;;;;;;9.95;5.22;;;;;;;13.32;65.92;100379.34;4915087;28;20578;-67
2023/10/13 06:50:52;;;;;;;8.60;4.90;;;;;;;13.05;66.57;100371.31;4933310;28;20035;-72
2023/10/13 06:53:20;;;;;;;6.90;4.22;;;;;;;12.77;67.96;100369.44;4917280;28;20040;-70
2023/10/13 06:55:52;;;;;;;3.70;2.80;;;;;;;12.72;67.22;100359.22;4918541;28;20387;-72
2023/10/13 06:58:23;;;;;;;3.83;2.58;;;;;;;12.41;68.34;100370.53;4920329;28;20035;-69
2023/10/13 07:00:53;;;;;;;4.55;2.42;;;;;;;12.90;66.86;100368.63;4907236;28;20093;-69
2023/10/13 07:03:19;;;;;;;5.15;2.20;;;;;;;12.80;66.98;100366.63;4922531;28;20110;-70
2023/10/13 07:05:48;;;;;;;3.25;1.45;;;;;;;13.03;65.80;100357.44;4919539;28;20426;-71
2023/10/13 07:08:19;;;;;;;3.10;1.67;;;;;;;12.81;66.54;100365.72;4918665;28;20047;-71
2023/10/13 07:11:18;;;;;;;3.03;2.22;;;;;;;13.12;65.82;100362.16;4917105;28;20044;-71
2023/10/13 07:13:50;;;;;;;4.05;2.53;;;;;;;13.20;65.59;100366.94;4936677;28;20027;-70
2023/10/13 07:16:15;;;;;;;5.25;3.25;;;;;;;12.75;66.87;100361.63;4920482;28;20043;-71
2023/10/13 07:18:52;;;;;;;4.78;2.95;;;;;;;13.00;66.31;100353.19;4927959;28;20490;-69
2023/10/13 07:21:29;;;;;;;5.63;2.75;;;;;;;12.93;66.76;100351.88;4918964;28;20406;-68
2023/10/13 07:24:08;;;;;;;5.80;3.47;;;;;;;13.16;65.92;100352.28;4935845;28;20061;-67
2023/10/13 07:26:35;;;;;;;3.97;2.92;;;;;;;13.20;65.75;100343.31;4923563;28;20027;-68
2023/10/13 07:29:00;;;;;;;6.63;3.88;;;;;;;13.07;66.20;100333.56;4915286;28;20054;-68
2023/10/13 07:31:27;;;;;;;4.40;3.15;;;;;;;13.11;66.14;100329.78;4924703;28;20342;-68
2023/10/13 07:34:03;;;;;;;6.55;3.63;;;;;;;13.07;66.03;100328.31;4936814;28;20058;-67
2023/10/13 07:36:34;;;;;;;6.88;3.03;;;;;;;13.04;66.17;100323.22;4939314;28;20045;-68
2023/10/13 07:41:44;;;;;;;4.15;3.00;;;;;;;13.01;66.27;100318.16;4921242;28;20035;-68
2023/10/13 07:44:12;;;;;;;3.15;2.72;;;;;;;12.86;67.13;100303.34;4914498;28;20048;-68
2023/10/13 07:46:38;;;;;;;4.85;2.65;;;;;;;12.97;66.90;100319.28;4936579;28;20107;-69
2023/10/13 07:49:10;;;;;;;3.88;3.10;;;;;;;13.07;66.42;100307.31;4925548;28;20624;-69
2023/10/13 07:51:45;;;;;;;4.72;3.08;;;;;;;13.23;66.09;100303.78;4920006;28;20502;-68
2023/10/13 07:54:21;;;;;;;3.20;2.60;;;;;;;13.24;66.31;100298.41;4926755;28;20526;-68
2023/10/13 07:56:47;;;;;;;3.83;2.70;;;;;;;13.29;66.20;100300.75;4918355;28;20651;-68
2023/10/13 07:59:14;;;;;;;4.80;2.03;;;;;;;12.60;68.98;100303.06;4912456;28;20047;-68
2023/10/13 08:01:45;;;;;;;3.22;2.33;;;;;;;12.77;68.63;100314.38;4919239;28;20401;-68
2023/10/13 08:04:11;;;;;;;3.10;2.07;;;;;;;13.01;67.87;100286.69;4911350;28;20376;-68
2023/10/13 08:06:37;;;;;;;5.22;2.10;;;;;;;12.67;69.15;100299.13;4916710;28;20042;-67
2023/10/13 08:09:28;;;;;;;3.08;1.88;;;;;;;12.83;68.72;100298.28;4912161;28;20111;-66
2023/10/13 08:11:55;;;;;;;3.20;1.92;;;;;;;12.54;69.81;100287.66;4918079;28;20039;-69
2023/10/13 08:14:28;;;;;;;3.42;1.75;;;;;;;12.91;68.77;100280.28;4919154;28;20035;-69
2023/10/13 08:16:59;;;;;;;5.20;2.00;;;;;;;12.96;68.46;100282.63;4931157;28;20102;-69
2023/10/13 08:20:11;;;;;;;4.18;2.05;;;;;;;12.90;68.30;100287.31;4929798;28;20058;-68
2023/10/13 08:27:34;;;;;;;4.72;1.55;;;;;;;13.16;67.28;100274.44;4917665;28;20589;-68
2023/10/13 08:45:53;;;;;;;8.18;2.35;;;;;;;13.27;66.25;100235.28;4918459;28;20116;-68
2023/10/13 08:48:14;;;;;;;5.03;1.98;;;;;;;13.55;65.09;100212.53;4923172;28;20118;-68
2023/10/13 09:01:34;;;;;;;4.45;1.75;;;;;;;13.08;65.78;100196.19;4920119;28;20058;-68
2023/10/13 09:12:24;;;;;;;9.05;2.17;;;;;;;13.38;64.88;100161.09;4935191;28;20042;-68
2023/10/13 09:14:57;;;;;;;6.68;2.13;;;;;;;13.11;65.90;100161.88;4923185;28;20554;-66
2023/10/13 09:20:19;;;;;;;2.65;2.03;;;;;;;13.50;64.49;100136.69;4937630;28;20059;-68
2023/10/13 09:22:54;;;;;;;5.38;2.42;;;;;;;13.78;64.14;100134.94;4919208;28;20039;-70
2023/10/13 09:25:23;;;;;;;5.63;2.55;;;;;;;13.91;64.09;100133.19;4915563;28;20434;-68
2023/10/13 09:27:53;;;;;;;9.10;3.28;;;;;;;14.20;63.11;100135.66;4922720;28;20042;-67
2023/10/13 09:30:22;;;;;;;10.93;2.15;;;;;;;14.00;63.74;100133.53;4916846;28;20046;-66
2023/10/13 09:33:04;;;;;;;8.23;2.42;;;;;;;14.32;62.73;100124.34;4920593;28;20122;-65
2023/10/13 09:35:33;;;;;;;6.88;2.83;;;;;;;14.04;63.40;100116.63;4917576;28;20097;-68
2023/10/13 09:38:03;;;;;;;4.80;2.08;;;;;;;14.33;62.62;100119.91;4920487;28;20501;-70
2023/10/13 09:43:07;;;;;;;7.85;2.50;;;;;;;14.16;63.81;100113.16;4921101;28;20498;-70
2023/10/13 09:46:00;;;;;;;8.70;2.45;;;;;;;14.40;63.18;100109.84;4918302;28;20131;-69
2023/10/13 09:48:32;;;;;;;6.65;3.03;;;;;;;14.58;62.48;100099.88;4913459;28;20031;-69
2023/10/13 09:51:01;;;;;;;8.43;3.22;;;;;;;14.59;62.79;100089.25;4933973;28;20043;-67
2023/10/13 09:53:29;;;;;;;9.20;2.90;;;;;;;14.43;62.82;100083.34;4913086;28;20039;-68
2023/10/13 09:56:11;;;;;;;14.98;3.75;;;;;;;14.60;62.64;100069.88;4924462;28;20036;-69
2023/10/13 09:58:47;;;;;;;11.73;3.33;;;;;;;14.28;63.30;100075.56;4917344;28;20172;-69
2023/10/13 10:01:20;;;;;;;5.07;2.60;;;;;;;14.60;62.59;100072.50;4914282;28;20047;-69
2023/10/13 10:04:08;;;;;;;8.90;2.70;;;;;;;14.72;62.43;100069.03;4916779;28;20074;-69
2023/10/13 10:06:39;;;;;;;10.50;2.92;;;;;;;14.88;62.20;100062.66;4920560;28;20036;-69
2023/10/13 10:09:12;;;;;;;13.38;3.60;;;;;;;14.76;62.60;100054.69;4916492;28;20712;-68
2023/10/13 10:12:00;;;;;;;10.63;3.08;;;;;;;14.44;63.39;100061.38;4918884;28;20046;-69
2023/10/13 10:14:50;;;;;;;7.90;2.78;;;;;;;14.83;62.59;100057.72;4918481;28;20478;-70
2023/10/13 10:17:15;;;;;;;6.57;2.63;;;;;;;15.12;61.97;100047.75;4911460;28;20490;-69
2023/10/13 10:19:55;;;;;;;11.05;3.50;;;;;;;14.58;63.63;100050.75;4918176;28;20050;-69
2023/10/13 10:22:33;;;;;;;7.95;3.22;;;;;;;15.66;61.24;100019.28;4911753;28;20039;-69
2023/10/13 10:25:01;;;;;;;9.15;2.97;;;;;;;15.58;61.04;100051.50;4933806;28;20537;-70
2023/10/13 10:27:32;;;;;;;9.90;4.80;;;;;;;15.20;62.17;100041.13;4913135;28;20043;-68
2023/10/13 10:29:58;;;;;;;4.10;2.17;;;;;;;15.59;60.96;100037.34;4918024;28;20437;-70
2023/10/13 10:32:40;;;;;;;9.43;3.08;;;;;;;15.83;60.19;100033.84;4913217;28;20039;-70
2023/10/13 10:35:14;;;;;;;12.20;3.15;;;;;;;15.82;60.52;100035.66;4919856;28;20039;-69
2023/10/13 10:37:46;;;;;;;5.05;2.30;;;;;;;16.44;58.85;100034.41;4916579;28;20035;-70
2023/10/13 10:40:33;;;;;;;6.97;2.88;;;;;;;16.06;59.92;100024.22;4917858;28;20442;-70
2023/10/13 10:43:01;;;;;;;9.57;3.08;;;;;;;15.97;60.12;100025.72;4934132;28;20040;-70
2023/10/13 10:45:33;;;;;;;6.22;2.42;;;;;;;16.06;59.43;100030.31;4926595;28;20047;-70
2023/10/13 10:47:59;;;;;;;9.52;2.72;;;;;;;16.59;58.71;100027.13;4917943;28;20436;-70
2023/10/13 10:50:34;;;;;;;12.85;2.92;;;;;;;15.28;61.20;100002.78;4912995;28;20049;-69
2023/10/13 10:53:07;;;;;;;4.57;2.30;;;;;;;15.53;61.53;100009.69;4920045;28;20253;-69
2023/10/13 10:55:36;;;;;;;12.95;2.97;;;;;;;16.42;59.35;100025.81;4913216;28;20197;-70
2023/10/13 10:58:06;;;;;;;8.35;2.75;;;;;;;16.55;58.34;99984.28;4919127;28;20499;-70
2023/10/13 11:01:01;;;;;;;8.52;2.42;;;;;;;16.30;58.79;99995.94;4915317;28;20051;-69
2023/10/13 11:03:18;;;;;;;6.82;2.90;;;;;;;16.28;59.06;99976.78;4921730;28;20455;-70
2023/10/13 11:05:45;;;;;;;10.30;2.97;;;;;;;15.66;60.39;99970.13;4918233;28;20034;-70
2023/10/13 11:08:32;;;;;;;7.97;3.35;;;;;;;15.57;61.07;99976.91;4915066;28;20365;-69
2023/10/13 11:11:01;;;;;;;2.70;1.60;;;;;;;15.74;60.75;99980.06;4920505;28;20063;-71
2023/10/13 11:13:30;;;;;;;5.72;2.90;;;;;;;16.24;58.70;99943.69;4930733;28;20038;-71
2023/10/13 11:15:57;;;;;;;15.75;3.95;;;;;;;17.12;57.51;99941.97;4916843;28;20051;-71
2023/10/13 11:18:38;;;;;;;7.03;3.15;;;;;;;16.91;57.00;99936.63;4914863;28;20039;-71
2023/10/13 11:21:06;;;;;;;10.25;1.80;;;;;;;17.17;56.16;99940.63;4917822;28;20059;-71
2023/10/13 11:23:36;;;;;;;5.63;2.45;;;;;;;16.88;56.65;99944.81;4913616;28;20036;-71
2023/10/13 11:26:04;;;;;;;11.60;3.30;;;;;;;16.71;57.88;99917.97;4934798;28;20516;-71
2023/10/13 11:28:31;;;;;;;7.20;2.50;;;;;;;16.73;56.72;99925.75;4915976;28;20501;-71
2023/10/13 11:30:58;;;;;;;6.88;2.45;;;;;;;17.13;56.13;99920.69;4919313;28;20565;-71
2023/10/13 11:33:28;;;;;;;9.05;3.35;;;;;;;16.84;56.62;99931.03;4916524;28;20042;-71
2023/10/13 11:35:55;;;;;;;7.25;2.10;;;;;;;16.88;56.60;99923.69;4934043;28;20324;-71
2023/10/13 11:38:49;;;;;;;7.53;2.13;;;;;;;16.66;57.26;99933.31;4921744;28;20283;-71
2023/10/13 11:41:18;;;;;;;8.48;2.90;;;;;;;16.38;57.34;99925.00;4920599;28;20078;-70
2023/10/13 11:46:15;;;;;;;;;;;;;;;17.05;55.98;99915.25;4916611;28;20063;-71
2023/10/13 11:48:46;;;;;;;6.53;2.60;;;;;;;18.17;53.83;99905.75;4916617;28;19915;-71
2023/10/13 11:51:18;;;;;;;12.43;3.72;;;;;;;18.12;53.16;99901.81;4918513;28;20043;-71
2023/10/13 11:53:51;;;;;;;10.35;2.97;;;;;;;17.71;53.58;99895.66;4923689;28;20086;-72
2023/10/13 11:56:20;;;;;;;12.77;3.08;;;;;;;17.18;54.73;99899.19;4917943;28;20027;-71
2023/10/13 11:58:47;;;;;;;9.25;3.28;;;;;;;16.88;55.28;99900.78;4918626;28;20041;-71
2023/10/13 12:09:14;;;;;;;6.38;3.05;;;;;;;17.10;54.95;99888.47;4919435;28;20061;-71
2023/10/13 12:11:41;;;;;;;9.27;2.55;;;;;;;17.56;53.16;99880.16;4921648;28;20094;-71
2023/10/13 12:14:29;;;;;;;9.60;2.58;;;;;;;16.92;54.12;99890.81;4933213;28;20118;-72
2023/10/13 12:16:55;;;;;;;14.07;2.42;;;;;;;16.97;54.33;99878.06;4922075;28;20229;-72
2023/10/13 12:19:34;;;;;;;11.52;2.90;;;;;;;17.14;53.46;99869.59;4912710;28;20051;-69
2023/10/13 12:22:05;;;;;;;16.83;2.75;;;;;;;17.55;52.69;99862.63;4919492;28;20039;-72
2023/10/13 12:24:40;;;;;;;11.32;3.03;;;;;;;17.33;52.83;99895.28;4914616;28;20060;-71
2023/10/13 12:27:19;;;;;;;9.68;3.22;;;;;;;17.08;53.92;99878.00;4917566;28;20039;-72
2023/10/13 12:29:51;;;;;;;8.68;3.17;;;;;;;16.21;57.17;99843.75;4921713;28;20546;-72
2023/10/13 12:32:30;;;;;;;8.57;2.55;;;;;;;15.27;56.88;99847.56;4914049;28;20284;-71
2023/10/13 12:54:04;;;;;;;11.68;3.00;;;;;;;16.10;59.66;99841.97;4917273;28;20074;-71
2023/10/13 12:56:30;;;;;;;8.10;4.05;;;;;;;15.95;59.57;99848.44;4916996;28;20041;-71
2023/10/13 12:58:56;;;;;;;10.38;3.08;;;;;;;15.71;59.46;99846.78;4917500;28;20820;-71
2023/10/13 13:01:24;;;;;;;12.25;3.53;;;;;;;15.48;60.32;99856.47;4923753;28;20521;-69
2023/10/13 13:03:55;;;;;;;18.30;3.42;;;;;;;15.89;58.80;99849.78;4923307;28;20031;-69
2023/10/13 13:06:29;;;;;;;14.65;4.53;;;;;;;16.08;58.62;99849.16;4915325;28;20039;-69
2023/10/13 13:08:58;;;;;;;11.73;4.22;;;;;;;15.66;59.37;99848.94;4916520;28;20971;-70
2023/10/13 13:11:25;;;;;;;11.65;3.53;;;;;;;16.18;57.67;99865.09;4916091;28;20040;-70
2023/10/13 13:13:51;;;;;;;11.73;3.42;;;;;;;15.99;58.27;99845.47;4921063;28;20232;-70
2023/10/13 13:16:30;;;;;;;10.68;3.85;;;;;;;16.50;56.54;99859.03;4922033;28;20062;-70
2023/10/13 13:18:55;;;;;;;8.88;2.65;;;;;;;16.13;57.77;99859.34;4920002;28;20696;-71
2023/10/13 13:21:23;;;;;;;12.88;3.80;;;;;;;15.65;59.18;99851.69;4919158;28;20406;-71
2023/10/13 13:23:49;;;;;;;14.15;3.95;;;;;;;15.66;58.93;99887.59;4918634;28;20106;-71
2023/10/13 13:26:18;;;;;;;12.27;3.33;;;;;;;15.90;58.27;99876.94;4924697;28;20034;-72
2023/10/13 13:28:45;;;;;;;14.48;4.45;;;;;;;15.71;59.08;99853.84;4917993;28;20218;-71
2023/10/13 13:31:12;;;;;;;16.77;3.90;;;;;;;15.62;59.26;99859.81;4921545;28;20394;-72
2023/10/13 13:33:38;;;;;;;10.20;3.75;;;;;;;14.99;60.52;99846.97;4932624;28;22461;-71
2023/10/13 13:36:13;;;;;;;13.10;3.05;;;;;;;15.36;59.99;99857.41;4919868;28;20043;-71
2023/10/13 13:38:40;;;;;;;5.82;2.75;;;;;;;15.07;60.93;99847.25;4915805;28;20126;-71
2023/10/13 13:41:14;;;;;;;14.65;4.60;;;;;;;15.28;60.13;99854.50;4922298;28;20146;-71
2023/10/13 13:46:16;;;;;;;14.45;4.10;;;;;;;15.35;60.20;99824.16;4922049;28;20382;-71
2023/10/13 13:48:42;;;;;;;18.60;4.50;;;;;;;15.34;59.80;99840.88;4914156;28;20109;-69
2023/10/13 13:51:14;;;;;;;10.73;3.90;;;;;;;15.40;59.79;99808.00;4921766;28;20062;-71
2023/10/13 13:53:45;;;;;;;13.50;4.25;;;;;;;15.46;59.90;99805.72;4915064;28;21542;-71
2023/10/13 13:56:15;;;;;;;15.83;4.93;;;;;;;15.18;60.24;99797.28;4922619;28;20043;-71
2023/10/13 13:58:45;;;;;;;17.25;5.97;;;;;;;15.66;59.37;99800.66;4915178;28;20049;-71
2023/10/13 14:01:21;;;;;;;11.77;4.32;;;;;;;15.33;59.74;99799.72;4922493;28;20086;-71
2023/10/13 14:03:50;;;;;;;7.70;4.45;;;;;;;15.15;61.16;99800.16;4918454;28;20027;-71
2023/10/13 14:06:24;;;;;;;9.70;4.65;;;;;;;14.51;62.61;99828.63;4920903;28;20031;-69
2023/10/13 14:08:51;;;;;;;11.68;4.13;;;;;;;14.88;62.04;99825.91;4916571;28;20035;-70
2023/10/13 14:14:04;;;;;;;12.15;5.18;;;;;;;14.71;62.93;99817.47;4929135;28;20197;-70
2023/10/13 14:16:33;;;;;;;9.27;5.07;;;;;;;14.81;62.76;99814.16;4913098;28;20456;-70
2023/10/13 14:19:01;;;;;;;13.88;5.47;;;;;;;14.96;62.73;99802.50;4914267;28;20078;-70
2023/10/13 14:21:27;;;;;;;13.77;4.78;;;;;;;14.49;64.05;99789.31;4918727;28;20539;-69
2023/10/13 14:23:53;;;;;;;16.20;4.75;;;;;;;14.91;62.51;99789.69;4914929;28;20066;-69
2023/10/13 14:26:21;;;;;;;14.27;5.13;;;;;;;15.00;62.63;99792.59;4923380;28;20035;-69
2023/10/13 14:29:00;;;;;;;11.50;5.05;;;;;;;14.77;63.06;99780.22;4915233;28;20061;-71
2023/10/13 14:31:30;;;;;;;17.63;5.13;;;;;;;14.42;63.55;99782.00;4919249;28;20455;-69
2023/10/13 14:33:56;;;;;;;15.45;5.25;;;;;;;14.89;62.36;99788.13;4919421;28;21524;-70
2023/10/13 14:36:23;;;;;;;14.40;4.68;;;;;;;14.84;62.67;99777.94;4920353;28;20657;-70
2023/10/13 14:38:51;;;;;;;16.23;4.75;;;;;;;14.41;63.79;99765.38;4918180;28;20032;-70
2023/10/13 14:41:18;;;;;;;13.70;5.25;;;;;;;14.74;62.90;99772.53;4922263;28;20183;-70
2023/10/13 14:43:56;;;;;;;8.95;4.72;;;;;;;14.80;62.54;99776.50;4915291;28;20188;-70
2023/10/13 14:46:23;;;;;;;16.05;5.45;;;;;;;14.81;62.74;99762.38;4917967;28;20574;-70
2023/10/13 14:48:52;;;;;;;16.52;5.40;;;;;;;15.14;61.44;99761.59;4921785;28;20075;-70
2023/10/13 14:51:18;;;;;;;15.00;4.32;;;;;;;15.35;60.59;99740.72;4929787;28;20035;-72
2023/10/13 14:53:44;;;;;;;14.77;5.57;;;;;;;15.29;60.46;99751.72;4921284;28;20356;-70
2023/10/13 14:56:11;;;;;;;10.68;4.57;;;;;;;15.65;59.57;99751.59;4942062;28;20039;-70
2023/10/13 14:58:42;;;;;;;17.52;4.78;;;;;;;15.47;59.89;99778.41;4925062;28;20031;-69
2023/10/13 15:01:17;;;;;;;12.60;4.38;;;;;;;15.36;60.00;99763.44;4926185;28;20512;-71
2023/10/13 15:03:47;;;;;;;14.80;4.05;;;;;;;15.73;59.16;99775.53;4916756;28;20036;-70
2023/10/13 15:06:20;;;;;;;15.48;5.03;;;;;;;15.54;59.73;99773.50;4922036;28;20115;-71
2023/10/13 15:08:47;;;;;;;12.90;4.45;;;;;;;14.71;61.91;99767.50;4915239;28;20039;-71
2023/10/13 15:11:18;;;;;;;8.88;3.97;;;;;;;15.35;59.91;99776.75;4918817;28;20031;-70
2023/10/13 15:13:44;;;;;;;17.98;4.78;;;;;;;15.29;60.25;99753.53;4917650;28;20035;-70